Aviation Digital Data Service (ADDS)

Output produced by METARs form (2349 UTC 24 April 2019)
found at http://www.aviationweather.gov/metar/data/
 
METAR text: EKAH 242320Z AUTO 10010KT 9999NDV NCD 11/07 Q1008
Conditions at: EKAH (TIRSTRUP (CIV/MI, DK) observed 2320 UTC 24 April 2019
Temperature: 11.0°C (52°F)
Dewpoint: 7.0°C (45°F) [RH = 76%]
Pressure (altimeter): 29.76 inches Hg (1008.0 mb)
Winds: from the E (100 degrees) at 12 MPH (10 knots; 5.1 m/s)
Visibility: missing
Ceiling: at least 12,000 feet AGL
Clouds: sky clear below 12,000 feet AGL
Weather: no significant weather observed at this time

METAR text: EKAH 242250Z AUTO 10008KT 9999NDV FEW110/// 11/07 Q1009
Conditions at: EKAH (TIRSTRUP (CIV/MI, DK) observed 2250 UTC 24 April 2019
Temperature: 11.0°C (52°F)
Dewpoint: 7.0°C (45°F) [RH = 76%]
Pressure (altimeter): 29.79 inches Hg (1009.0 mb)
Winds: from the E (100 degrees) at 9 MPH (8 knots; 4.1 m/s)
Visibility: missing
Ceiling: at least 12,000 feet AGL
Clouds: few clouds at 11000 feet AGL
Weather: no significant weather observed at this time

METAR text: EKAH 242220Z AUTO 09007KT 9999NDV SCT110/// 12/07 Q1009
Conditions at: EKAH (TIRSTRUP (CIV/MI, DK) observed 2220 UTC 24 April 2019
Temperature: 12.0°C (54°F)
Dewpoint: 7.0°C (45°F) [RH = 71%]
Pressure (altimeter): 29.79 inches Hg (1009.0 mb)
Winds: from the E (90 degrees) at 8 MPH (7 knots; 3.6 m/s)
Visibility: missing
Ceiling: at least 12,000 feet AGL
Clouds: scattered clouds at 11000 feet AGL
Weather: no significant weather observed at this time

METAR text: EKAH 242150Z AUTO 10007KT 9999NDV NCD 12/07 Q1009
Conditions at: EKAH (TIRSTRUP (CIV/MI, DK) observed 2150 UTC 24 April 2019
Temperature: 12.0°C (54°F)
Dewpoint: 7.0°C (45°F) [RH = 71%]
Pressure (altimeter): 29.79 inches Hg (1009.0 mb)
Winds: from the E (100 degrees) at 8 MPH (7 knots; 3.6 m/s)
Visibility: missing
Ceiling: at least 12,000 feet AGL
Clouds: sky clear below 12,000 feet AGL
Weather: no significant weather observed at this time

METAR text: EKAH 242120Z AUTO 10007KT 9999NDV NCD 12/07 Q1009
Conditions at: EKAH (TIRSTRUP (CIV/MI, DK) observed 2120 UTC 24 April 2019
Temperature: 12.0°C (54°F)
Dewpoint: 7.0°C (45°F) [RH = 71%]
Pressure (altimeter): 29.79 inches Hg (1009.0 mb)
Winds: from the E (100 degrees) at 8 MPH (7 knots; 3.6 m/s)
Visibility: missing
Ceiling: at least 12,000 feet AGL
Clouds: sky clear below 12,000 feet AGL
Weather: no significant weather observed at this time

METAR text: EKAH 242050Z AUTO 10009KT 9999NDV NCD 12/07 Q1009
Conditions at: EKAH (TIRSTRUP (CIV/MI, DK) observed 2050 UTC 24 April 2019
Temperature: 12.0°C (54°F)
Dewpoint: 7.0°C (45°F) [RH = 71%]
Pressure (altimeter): 29.79 inches Hg (1009.0 mb)
Winds: from the E (100 degrees) at 10 MPH (9 knots; 4.6 m/s)
Visibility: missing
Ceiling: at least 12,000 feet AGL
Clouds: sky clear below 12,000 feet AGL
Weather: no significant weather observed at this time

METAR text: EKAH 242020Z AUTO 10008KT 9999NDV NCD 12/07 Q1009
Conditions at: EKAH (TIRSTRUP (CIV/MI, DK) observed 2020 UTC 24 April 2019
Temperature: 12.0°C (54°F)
Dewpoint: 7.0°C (45°F) [RH = 71%]
Pressure (altimeter): 29.79 inches Hg (1009.0 mb)
Winds: from the E (100 degrees) at 9 MPH (8 knots; 4.1 m/s)
Visibility: missing
Ceiling: at least 12,000 feet AGL
Clouds: sky clear below 12,000 feet AGL
Weather: no significant weather observed at this time

METAR text: EKAH 241950Z AUTO 10008KT 9999NDV NCD 12/07 Q1009
Conditions at: EKAH (TIRSTRUP (CIV/MI, DK) observed 1950 UTC 24 April 2019
Temperature: 12.0°C (54°F)
Dewpoint: 7.0°C (45°F) [RH = 71%]
Pressure (altimeter): 29.79 inches Hg (1009.0 mb)
Winds: from the E (100 degrees) at 9 MPH (8 knots; 4.1 m/s)
Visibility: missing
Ceiling: at least 12,000 feet AGL
Clouds: sky clear below 12,000 feet AGL
Weather: no significant weather observed at this time

METAR text: EKAH 241920Z AUTO 09010KT 9999NDV NCD 12/08 Q1009
Conditions at: EKAH (TIRSTRUP (CIV/MI, DK) observed 1920 UTC 24 April 2019
Temperature: 12.0°C (54°F)
Dewpoint: 8.0°C (46°F) [RH = 76%]
Pressure (altimeter): 29.79 inches Hg (1009.0 mb)
Winds: from the E (90 degrees) at 12 MPH (10 knots; 5.1 m/s)
Visibility: missing
Ceiling: at least 12,000 feet AGL
Clouds: sky clear below 12,000 feet AGL
Weather: no significant weather observed at this time

METAR text: EKAH 241850Z AUTO 09007KT 9999NDV NCD 12/08 Q1009
Conditions at: EKAH (TIRSTRUP (CIV/MI, DK) observed 1850 UTC 24 April 2019
Temperature: 12.0°C (54°F)
Dewpoint: 8.0°C (46°F) [RH = 76%]
Pressure (altimeter): 29.79 inches Hg (1009.0 mb)
Winds: from the E (90 degrees) at 8 MPH (7 knots; 3.6 m/s)
Visibility: missing
Ceiling: at least 12,000 feet AGL
Clouds: sky clear below 12,000 feet AGL
Weather: no significant weather observed at this time

METAR text: EKAH 241820Z AUTO 09009KT 9999NDV SCT130/// 13/08 Q1009
Conditions at: EKAH (TIRSTRUP (CIV/MI, DK) observed 1820 UTC 24 April 2019
Temperature: 13.0°C (55°F)
Dewpoint: 8.0°C (46°F) [RH = 72%]
Pressure (altimeter): 29.79 inches Hg (1009.0 mb)
Winds: from the E (90 degrees) at 10 MPH (9 knots; 4.6 m/s)
Visibility: missing
Ceiling: at least 12,000 feet AGL
Clouds: scattered clouds at 13000 feet AGL
Weather: no significant weather observed at this time

METAR text: EKAH 241750Z AUTO 10009KT 9999NDV BKN120/// 13/08 Q1009
Conditions at: EKAH (TIRSTRUP (CIV/MI, DK) observed 1750 UTC 24 April 2019
Temperature: 13.0°C (55°F)
Dewpoint: 8.0°C (46°F) [RH = 72%]
Pressure (altimeter): 29.79 inches Hg (1009.0 mb)
Winds: from the E (100 degrees) at 10 MPH (9 knots; 4.6 m/s)
Visibility: missing
Ceiling: 12000 feet AGL
Clouds: broken clouds at 12000 feet AGL
Weather: no significant weather observed at this time

METAR text: EKAH 241720Z AUTO 10010KT 9999NDV BKN110/// 14/08 Q1009
Conditions at: EKAH (TIRSTRUP (CIV/MI, DK) observed 1720 UTC 24 April 2019
Temperature: 14.0°C (57°F)
Dewpoint: 8.0°C (46°F) [RH = 67%]
Pressure (altimeter): 29.79 inches Hg (1009.0 mb)
Winds: from the E (100 degrees) at 12 MPH (10 knots; 5.1 m/s)
Visibility: missing
Ceiling: 11000 feet AGL
Clouds: broken clouds at 11000 feet AGL
Weather: no significant weather observed at this time

METAR text: EKAH 241650Z AUTO 10011KT 9999NDV FEW072/// BKN110/// 14/08 Q1009
Conditions at: EKAH (TIRSTRUP (CIV/MI, DK) observed 1650 UTC 24 April 2019
Temperature: 14.0°C (57°F)
Dewpoint: 8.0°C (46°F) [RH = 67%]
Pressure (altimeter): 29.79 inches Hg (1009.0 mb)
Winds: from the E (100 degrees) at 13 MPH (11 knots; 5.7 m/s)
Visibility: missing
Ceiling: 11000 feet AGL
Clouds: few clouds at 7200 feet AGL
broken clouds at 11000 feet AGL
Weather: no significant weather observed at this time

METAR text: EKAH 241620Z AUTO 10011KT 080V140 9999NDV FEW072/// BKN094/// BKN120/// 14/08 Q1009
Conditions at: EKAH (TIRSTRUP (CIV/MI, DK) observed 1620 UTC 24 April 2019
Temperature: 14.0°C (57°F)
Dewpoint: 8.0°C (46°F) [RH = 67%]
Pressure (altimeter): 29.79 inches Hg (1009.0 mb)
Winds: from the E (100 degrees) at 13 MPH (11 knots; 5.7 m/s)
Visibility: missing
Ceiling: 9400 feet AGL
Clouds: few clouds at 7200 feet AGL
broken clouds at 9400 feet AGL
broken clouds at 12000 feet AGL
Weather: no significant weather observed at this time

METAR text: EKAH 241550Z AUTO 11014KT 090V150 9999NDV BKN093/// BKN150/// 15/07 Q1009
Conditions at: EKAH (TIRSTRUP (CIV/MI, DK) observed 1550 UTC 24 April 2019
Temperature: 15.0°C (59°F)
Dewpoint: 7.0°C (45°F) [RH = 59%]
Pressure (altimeter): 29.79 inches Hg (1009.0 mb)
Winds: from the ESE (110 degrees) at 16 MPH (14 knots; 7.2 m/s)
Visibility: missing
Ceiling: 9300 feet AGL
Clouds: broken clouds at 9300 feet AGL
broken clouds at 15000 feet AGL
Weather: no significant weather observed at this time

METAR text: EKAH 241520Z AUTO 12012G23KT 080V160 9999NDV FEW053/// BKN120/// 15/07 Q1009
Conditions at: EKAH (TIRSTRUP (CIV/MI, DK) observed 1520 UTC 24 April 2019
Temperature: 15.0°C (59°F)
Dewpoint: 7.0°C (45°F) [RH = 59%]
Pressure (altimeter): 29.79 inches Hg (1009.0 mb)
Winds: from the ESE (120 degrees) at 14 MPH (12 knots; 6.2 m/s)
gusting to 26 MPH (23 knots; 11.8 m/s)
Visibility: missing
Ceiling: 12000 feet AGL
Clouds: few clouds at 5300 feet AGL
broken clouds at 12000 feet AGL
Weather: no significant weather observed at this time

METAR text: EKAH 241450Z AUTO 12011KT 090V150 9999NDV BKN067/// 14/07 Q1009
Conditions at: EKAH (TIRSTRUP (CIV/MI, DK) observed 1450 UTC 24 April 2019
Temperature: 14.0°C (57°F)
Dewpoint: 7.0°C (45°F) [RH = 63%]
Pressure (altimeter): 29.79 inches Hg (1009.0 mb)
Winds: from the ESE (120 degrees) at 13 MPH (11 knots; 5.7 m/s)
Visibility: missing
Ceiling: 6700 feet AGL
Clouds: broken clouds at 6700 feet AGL
Weather: no significant weather observed at this time

METAR text: EKAH 241420Z AUTO 12013G23KT 090V160 9999NDV BKN065/// 14/06 Q1009
Conditions at: EKAH (TIRSTRUP (CIV/MI, DK) observed 1420 UTC 24 April 2019
Temperature: 14.0°C (57°F)
Dewpoint: 6.0°C (43°F) [RH = 58%]
Pressure (altimeter): 29.79 inches Hg (1009.0 mb)
Winds: from the ESE (120 degrees) at 15 MPH (13 knots; 6.7 m/s)
gusting to 26 MPH (23 knots; 11.8 m/s)
Visibility: missing
Ceiling: 6500 feet AGL
Clouds: broken clouds at 6500 feet AGL
Weather: no significant weather observed at this time

METAR text: EKAH 241350Z AUTO 12012KT 090V160 9999NDV BKN079/// 15/06 Q1009
Conditions at: EKAH (TIRSTRUP (CIV/MI, DK) observed 1350 UTC 24 April 2019
Temperature: 15.0°C (59°F)
Dewpoint: 6.0°C (43°F) [RH = 55%]
Pressure (altimeter): 29.79 inches Hg (1009.0 mb)
Winds: from the ESE (120 degrees) at 14 MPH (12 knots; 6.2 m/s)
Visibility: missing
Ceiling: 7900 feet AGL
Clouds: broken clouds at 7900 feet AGL
Weather: no significant weather observed at this time

METAR text: EKAH 241320Z AUTO 13012G22KT 100V160 9999NDV BKN079/// 15/06 Q1009
Conditions at: EKAH (TIRSTRUP (CIV/MI, DK) observed 1320 UTC 24 April 2019
Temperature: 15.0°C (59°F)
Dewpoint: 6.0°C (43°F) [RH = 55%]
Pressure (altimeter): 29.79 inches Hg (1009.0 mb)
Winds: from the SE (130 degrees) at 14 MPH (12 knots; 6.2 m/s)
gusting to 25 MPH (22 knots; 11.3 m/s)
Visibility: missing
Ceiling: 7900 feet AGL
Clouds: broken clouds at 7900 feet AGL
Weather: no significant weather observed at this time

METAR text: EKAH 241250Z AUTO 13012KT 100V160 9999NDV BKN079/// 15/06 Q1009
Conditions at: EKAH (TIRSTRUP (CIV/MI, DK) observed 1250 UTC 24 April 2019
Temperature: 15.0°C (59°F)
Dewpoint: 6.0°C (43°F) [RH = 55%]
Pressure (altimeter): 29.79 inches Hg (1009.0 mb)
Winds: from the SE (130 degrees) at 14 MPH (12 knots; 6.2 m/s)
Visibility: missing
Ceiling: 7900 feet AGL
Clouds: broken clouds at 7900 feet AGL
Weather: no significant weather observed at this time

METAR text: EKAH 241220Z AUTO 12013G24KT 080V160 9999NDV BKN083/// 15/06 Q1009
Conditions at: EKAH (TIRSTRUP (CIV/MI, DK) observed 1220 UTC 24 April 2019
Temperature: 15.0°C (59°F)
Dewpoint: 6.0°C (43°F) [RH = 55%]
Pressure (altimeter): 29.79 inches Hg (1009.0 mb)
Winds: from the ESE (120 degrees) at 15 MPH (13 knots; 6.7 m/s)
gusting to 28 MPH (24 knots; 12.3 m/s)
Visibility: missing
Ceiling: 8300 feet AGL
Clouds: broken clouds at 8300 feet AGL
Weather: no significant weather observed at this time

METAR text: EKAH 241150Z AUTO 11015KT 9999NDV BKN084/// 15/06 Q1009
Conditions at: EKAH (TIRSTRUP (CIV/MI, DK) observed 1150 UTC 24 April 2019
Temperature: 15.0°C (59°F)
Dewpoint: 6.0°C (43°F) [RH = 55%]
Pressure (altimeter): 29.79 inches Hg (1009.0 mb)
Winds: from the ESE (110 degrees) at 17 MPH (15 knots; 7.7 m/s)
Visibility: missing
Ceiling: 8400 feet AGL
Clouds: broken clouds at 8400 feet AGL
Weather: no significant weather observed at this time

METAR text: EKAH 241120Z AUTO 11012KT 080V150 9999NDV BKN046/// BKN086/// 15/06 Q1009
Conditions at: EKAH (TIRSTRUP (CIV/MI, DK) observed 1120 UTC 24 April 2019
Temperature: 15.0°C (59°F)
Dewpoint: 6.0°C (43°F) [RH = 55%]
Pressure (altimeter): 29.79 inches Hg (1009.0 mb)
Winds: from the ESE (110 degrees) at 14 MPH (12 knots; 6.2 m/s)
Visibility: missing
Ceiling: 4600 feet AGL
Clouds: broken clouds at 4600 feet AGL
broken clouds at 8600 feet AGL
Weather: no significant weather observed at this time

METAR text: EKAH 241050Z AUTO 10011KT 9999NDV BKN043/// 14/06 Q1009
Conditions at: EKAH (TIRSTRUP (CIV/MI, DK) observed 1050 UTC 24 April 2019
Temperature: 14.0°C (57°F)
Dewpoint: 6.0°C (43°F) [RH = 58%]
Pressure (altimeter): 29.79 inches Hg (1009.0 mb)
Winds: from the E (100 degrees) at 13 MPH (11 knots; 5.7 m/s)
Visibility: missing
Ceiling: 4300 feet AGL
Clouds: broken clouds at 4300 feet AGL
Weather: no significant weather observed at this time

METAR text: EKAH 241020Z AUTO 09012KT 9999NDV OVC045/// 13/06 Q1009
Conditions at: EKAH (TIRSTRUP (CIV/MI, DK) observed 1020 UTC 24 April 2019
Temperature: 13.0°C (55°F)
Dewpoint: 6.0°C (43°F) [RH = 62%]
Pressure (altimeter): 29.79 inches Hg (1009.0 mb)
Winds: from the E (90 degrees) at 14 MPH (12 knots; 6.2 m/s)
Visibility: missing
Ceiling: 4500 feet AGL
Clouds: overcast cloud deck at 4500 feet AGL
Weather: no significant weather observed at this time

METAR text: EKAH 240950Z AUTO 10014KT 070V130 9999NDV BKN037/// 14/06 Q1009
Conditions at: EKAH (TIRSTRUP (CIV/MI, DK) observed 0950 UTC 24 April 2019
Temperature: 14.0°C (57°F)
Dewpoint: 6.0°C (43°F) [RH = 58%]
Pressure (altimeter): 29.79 inches Hg (1009.0 mb)
Winds: from the E (100 degrees) at 16 MPH (14 knots; 7.2 m/s)
Visibility: missing
Ceiling: 3700 feet AGL
Clouds: broken clouds at 3700 feet AGL
Weather: no significant weather observed at this time

METAR text: EKAH 240920Z AUTO 10016KT 9999NDV FEW036/// SCT047/// 14/05 Q1009
Conditions at: EKAH (TIRSTRUP (CIV/MI, DK) observed 0920 UTC 24 April 2019
Temperature: 14.0°C (57°F)
Dewpoint: 5.0°C (41°F) [RH = 55%]
Pressure (altimeter): 29.79 inches Hg (1009.0 mb)
Winds: from the E (100 degrees) at 18 MPH (16 knots; 8.2 m/s)
Visibility: missing
Ceiling: at least 12,000 feet AGL
Clouds: few clouds at 3600 feet AGL
scattered clouds at 4700 feet AGL
Weather: no significant weather observed at this time

METAR text: EKAH 240850Z AUTO 10016KT 9999NDV FEW130/// 14/05 Q1009
Conditions at: EKAH (TIRSTRUP (CIV/MI, DK) observed 0850 UTC 24 April 2019
Temperature: 14.0°C (57°F)
Dewpoint: 5.0°C (41°F) [RH = 55%]
Pressure (altimeter): 29.79 inches Hg (1009.0 mb)
Winds: from the E (100 degrees) at 18 MPH (16 knots; 8.2 m/s)
Visibility: missing
Ceiling: at least 12,000 feet AGL
Clouds: few clouds at 13000 feet AGL
Weather: no significant weather observed at this time

METAR text: EKAH 240820Z AUTO 10017KT 9999NDV FEW069/// FEW078/// BKN130/// 13/05 Q1009
Conditions at: EKAH (TIRSTRUP (CIV/MI, DK) observed 0820 UTC 24 April 2019
Temperature: 13.0°C (55°F)
Dewpoint: 5.0°C (41°F) [RH = 58%]
Pressure (altimeter): 29.79 inches Hg (1009.0 mb)
Winds: from the E (100 degrees) at 20 MPH (17 knots; 8.7 m/s)
Visibility: missing
Ceiling: 13000 feet AGL
Clouds: few clouds at 6900 feet AGL
few clouds at 7800 feet AGL
broken clouds at 13000 feet AGL
Weather: no significant weather observed at this time

METAR text: EKAH 240750Z AUTO 10017KT 9999NDV BKN079/// BKN120/// 13/05 Q1009
Conditions at: EKAH (TIRSTRUP (CIV/MI, DK) observed 0750 UTC 24 April 2019
Temperature: 13.0°C (55°F)
Dewpoint: 5.0°C (41°F) [RH = 58%]
Pressure (altimeter): 29.79 inches Hg (1009.0 mb)
Winds: from the E (100 degrees) at 20 MPH (17 knots; 8.7 m/s)
Visibility: missing
Ceiling: 7900 feet AGL
Clouds: broken clouds at 7900 feet AGL
broken clouds at 12000 feet AGL
Weather: no significant weather observed at this time

METAR text: EKAH 240720Z AUTO 10014KT 9999NDV FEW120/// 13/05 Q1009
Conditions at: EKAH (TIRSTRUP (CIV/MI, DK) observed 0720 UTC 24 April 2019
Temperature: 13.0°C (55°F)
Dewpoint: 5.0°C (41°F) [RH = 58%]
Pressure (altimeter): 29.79 inches Hg (1009.0 mb)
Winds: from the E (100 degrees) at 16 MPH (14 knots; 7.2 m/s)
Visibility: missing
Ceiling: at least 12,000 feet AGL
Clouds: few clouds at 12000 feet AGL
Weather: no significant weather observed at this time

METAR text: EKAH 240650Z AUTO 10015G25KT 9999NDV SCT083/// 12/05 Q1009
Conditions at: EKAH (TIRSTRUP (CIV/MI, DK) observed 0650 UTC 24 April 2019
Temperature: 12.0°C (54°F)
Dewpoint: 5.0°C (41°F) [RH = 62%]
Pressure (altimeter): 29.79 inches Hg (1009.0 mb)
Winds: from the E (100 degrees) at 17 MPH (15 knots; 7.7 m/s)
gusting to 29 MPH (25 knots; 12.9 m/s)
Visibility: missing
Ceiling: at least 12,000 feet AGL
Clouds: scattered clouds at 8300 feet AGL
Weather: no significant weather observed at this time

METAR text: EKAH 240620Z AUTO 10015KT 080V140 9999NDV FEW084/// BKN095/// 12/05 Q1009
Conditions at: EKAH (TIRSTRUP (CIV/MI, DK) observed 0620 UTC 24 April 2019
Temperature: 12.0°C (54°F)
Dewpoint: 5.0°C (41°F) [RH = 62%]
Pressure (altimeter): 29.79 inches Hg (1009.0 mb)
Winds: from the E (100 degrees) at 17 MPH (15 knots; 7.7 m/s)
Visibility: missing
Ceiling: 9500 feet AGL
Clouds: few clouds at 8400 feet AGL
broken clouds at 9500 feet AGL
Weather: no significant weather observed at this time

METAR text: EKAH 240550Z AUTO 10016KT 9999NDV BKN089/// 12/05 Q1009
Conditions at: EKAH (TIRSTRUP (CIV/MI, DK) observed 0550 UTC 24 April 2019
Temperature: 12.0°C (54°F)
Dewpoint: 5.0°C (41°F) [RH = 62%]
Pressure (altimeter): 29.79 inches Hg (1009.0 mb)
Winds: from the E (100 degrees) at 18 MPH (16 knots; 8.2 m/s)
Visibility: missing
Ceiling: 8900 feet AGL
Clouds: broken clouds at 8900 feet AGL
Weather: no significant weather observed at this time

METAR text: EKAH 240520Z AUTO 10016KT 9999NDV BKN110/// 12/05 Q1009
Conditions at: EKAH (TIRSTRUP (CIV/MI, DK) observed 0520 UTC 24 April 2019
Temperature: 12.0°C (54°F)
Dewpoint: 5.0°C (41°F) [RH = 62%]
Pressure (altimeter): 29.79 inches Hg (1009.0 mb)
Winds: from the E (100 degrees) at 18 MPH (16 knots; 8.2 m/s)
Visibility: missing
Ceiling: 11000 feet AGL
Clouds: broken clouds at 11000 feet AGL
Weather: no significant weather observed at this time

METAR text: EKAH 240450Z AUTO 10015G30KT 060V130 9999NDV BKN088/// 12/05 Q1009
Conditions at: EKAH (TIRSTRUP (CIV/MI, DK) observed 0450 UTC 24 April 2019
Temperature: 12.0°C (54°F)
Dewpoint: 5.0°C (41°F) [RH = 62%]
Pressure (altimeter): 29.79 inches Hg (1009.0 mb)
Winds: from the E (100 degrees) at 17 MPH (15 knots; 7.7 m/s)
gusting to 34 MPH (30 knots; 15.4 m/s)
Visibility: missing
Ceiling: 8800 feet AGL
Clouds: broken clouds at 8800 feet AGL
Weather: no significant weather observed at this time

METAR text: EKAH 240420Z AUTO 10016KT 9999NDV BKN080/// 12/05 Q1009
Conditions at: EKAH (TIRSTRUP (CIV/MI, DK) observed 0420 UTC 24 April 2019
Temperature: 12.0°C (54°F)
Dewpoint: 5.0°C (41°F) [RH = 62%]
Pressure (altimeter): 29.79 inches Hg (1009.0 mb)
Winds: from the E (100 degrees) at 18 MPH (16 knots; 8.2 m/s)
Visibility: missing
Ceiling: 8000 feet AGL
Clouds: broken clouds at 8000 feet AGL
Weather: no significant weather observed at this time

METAR text: EKAH 240350Z AUTO 09014KT 9999NDV BKN073/// 12/05 Q1009
Conditions at: EKAH (TIRSTRUP (CIV/MI, DK) observed 0350 UTC 24 April 2019
Temperature: 12.0°C (54°F)
Dewpoint: 5.0°C (41°F) [RH = 62%]
Pressure (altimeter): 29.79 inches Hg (1009.0 mb)
Winds: from the E (90 degrees) at 16 MPH (14 knots; 7.2 m/s)
Visibility: missing
Ceiling: 7300 feet AGL
Clouds: broken clouds at 7300 feet AGL
Weather: no significant weather observed at this time

METAR text: EKAH 240320Z AUTO 09016KT 9999NDV -SHRA BKN068/// 12/05 Q1009
Conditions at: EKAH (TIRSTRUP (CIV/MI, DK) observed 0320 UTC 24 April 2019
Temperature: 12.0°C (54°F)
Dewpoint: 5.0°C (41°F) [RH = 62%]
Pressure (altimeter): 29.79 inches Hg (1009.0 mb)
Winds: from the E (90 degrees) at 18 MPH (16 knots; 8.2 m/s)
Visibility: missing
Ceiling: 6800 feet AGL
Clouds: broken clouds at 6800 feet AGL
Weather: -SHRA  (light rain showers)

METAR text: EKAH 240250Z AUTO 09015KT 9999NDV BKN061/// 11/06 Q1009
Conditions at: EKAH (TIRSTRUP (CIV/MI, DK) observed 0250 UTC 24 April 2019
Temperature: 11.0°C (52°F)
Dewpoint: 6.0°C (43°F) [RH = 71%]
Pressure (altimeter): 29.79 inches Hg (1009.0 mb)
Winds: from the E (90 degrees) at 17 MPH (15 knots; 7.7 m/s)
Visibility: missing
Ceiling: 6100 feet AGL
Clouds: broken clouds at 6100 feet AGL
Weather: no significant weather observed at this time

METAR text: EKAH 240220Z AUTO 09014KT 9999NDV BKN065/// 11/06 Q1010
Conditions at: EKAH (TIRSTRUP (CIV/MI, DK) observed 0220 UTC 24 April 2019
Temperature: 11.0°C (52°F)
Dewpoint: 6.0°C (43°F) [RH = 71%]
Pressure (altimeter): 29.82 inches Hg (1010.0 mb)
Winds: from the E (90 degrees) at 16 MPH (14 knots; 7.2 m/s)
Visibility: missing
Ceiling: 6500 feet AGL
Clouds: broken clouds at 6500 feet AGL
Weather: no significant weather observed at this time

METAR text: EKAH 240150Z AUTO 10012KT 9999NDV -SHRA BKN053/// 11/07 Q1010
Conditions at: EKAH (TIRSTRUP (CIV/MI, DK) observed 0150 UTC 24 April 2019
Temperature: 11.0°C (52°F)
Dewpoint: 7.0°C (45°F) [RH = 76%]
Pressure (altimeter): 29.82 inches Hg (1010.0 mb)
Winds: from the E (100 degrees) at 14 MPH (12 knots; 6.2 m/s)
Visibility: missing
Ceiling: 5300 feet AGL
Clouds: broken clouds at 5300 feet AGL
Weather: -SHRA  (light rain showers)

METAR text: EKAH 240120Z AUTO 10014KT 9999NDV -RA BKN062/// 11/06 Q1010
Conditions at: EKAH (TIRSTRUP (CIV/MI, DK) observed 0120 UTC 24 April 2019
Temperature: 11.0°C (52°F)
Dewpoint: 6.0°C (43°F) [RH = 71%]
Pressure (altimeter): 29.82 inches Hg (1010.0 mb)
Winds: from the E (100 degrees) at 16 MPH (14 knots; 7.2 m/s)
Visibility: missing
Ceiling: 6200 feet AGL
Clouds: broken clouds at 6200 feet AGL
Weather: -RA  (light rain)

METAR text: EKAH 240050Z AUTO 09014KT 9999NDV SCT061/// BKN074/// 12/05 Q1011
Conditions at: EKAH (TIRSTRUP (CIV/MI, DK) observed 0050 UTC 24 April 2019
Temperature: 12.0°C (54°F)
Dewpoint: 5.0°C (41°F) [RH = 62%]
Pressure (altimeter): 29.85 inches Hg (1011.0 mb)
Winds: from the E (90 degrees) at 16 MPH (14 knots; 7.2 m/s)
Visibility: missing
Ceiling: 7400 feet AGL
Clouds: scattered clouds at 6100 feet AGL
broken clouds at 7400 feet AGL
Weather: no significant weather observed at this time

METAR text: EKAH 240020Z AUTO 09017KT 9999NDV FEW067/// BKN087/// 12/05 Q1011
Conditions at: EKAH (TIRSTRUP (CIV/MI, DK) observed 0020 UTC 24 April 2019
Temperature: 12.0°C (54°F)
Dewpoint: 5.0°C (41°F) [RH = 62%]
Pressure (altimeter): 29.85 inches Hg (1011.0 mb)
Winds: from the E (90 degrees) at 20 MPH (17 knots; 8.7 m/s)
Visibility: missing
Ceiling: 8700 feet AGL
Clouds: few clouds at 6700 feet AGL
broken clouds at 8700 feet AGL
Weather: no significant weather observed at this time

METAR text: EKAH 232350Z AUTO 09016KT 9999NDV FEW038/// BKN068/// 12/05 Q1011
Conditions at: EKAH (TIRSTRUP (CIV/MI, DK) observed 2350 UTC 23 April 2019
Temperature: 12.0°C (54°F)
Dewpoint: 5.0°C (41°F) [RH = 62%]
Pressure (altimeter): 29.85 inches Hg (1011.0 mb)
Winds: from the E (90 degrees) at 18 MPH (16 knots; 8.2 m/s)
Visibility: missing
Ceiling: 6800 feet AGL
Clouds: few clouds at 3800 feet AGL
broken clouds at 6800 feet AGL
Weather: no significant weather observed at this time

METAR text: EKAH 232320Z AUTO 09015KT 9999NDV BKN040/// 12/04 Q1012
Conditions at: EKAH (TIRSTRUP (CIV/MI, DK) observed 2320 UTC 23 April 2019
Temperature: 12.0°C (54°F)
Dewpoint: 4.0°C (39°F) [RH = 58%]
Pressure (altimeter): 29.88 inches Hg (1012.0 mb)
Winds: from the E (90 degrees) at 17 MPH (15 knots; 7.7 m/s)
Visibility: missing
Ceiling: 4000 feet AGL
Clouds: broken clouds at 4000 feet AGL
Weather: no significant weather observed at this time

METAR text: EKAH 232250Z AUTO 09016KT 9999NDV FEW051/// BKN088/// 13/04 Q1012
Conditions at: EKAH (TIRSTRUP (CIV/MI, DK) observed 2250 UTC 23 April 2019
Temperature: 13.0°C (55°F)
Dewpoint: 4.0°C (39°F) [RH = 54%]
Pressure (altimeter): 29.88 inches Hg (1012.0 mb)
Winds: from the E (90 degrees) at 18 MPH (16 knots; 8.2 m/s)
Visibility: missing
Ceiling: 8800 feet AGL
Clouds: few clouds at 5100 feet AGL
broken clouds at 8800 feet AGL
Weather: no significant weather observed at this time

METAR text: EKAH 232220Z AUTO 09017KT 9999NDV BKN067/// BKN091/// 13/03 Q1012
Conditions at: EKAH (TIRSTRUP (CIV/MI, DK) observed 2220 UTC 23 April 2019
Temperature: 13.0°C (55°F)
Dewpoint: 3.0°C (37°F) [RH = 51%]
Pressure (altimeter): 29.88 inches Hg (1012.0 mb)
Winds: from the E (90 degrees) at 20 MPH (17 knots; 8.7 m/s)
Visibility: missing
Ceiling: 6700 feet AGL
Clouds: broken clouds at 6700 feet AGL
broken clouds at 9100 feet AGL
Weather: no significant weather observed at this time

METAR text: EKAH 232150Z AUTO 09018KT 9999NDV FEW055/// BKN068/// 14/03 Q1012
Conditions at: EKAH (TIRSTRUP (CIV/MI, DK) observed 2150 UTC 23 April 2019
Temperature: 14.0°C (57°F)
Dewpoint: 3.0°C (37°F) [RH = 47%]
Pressure (altimeter): 29.88 inches Hg (1012.0 mb)
Winds: from the E (90 degrees) at 21 MPH (18 knots; 9.3 m/s)
Visibility: missing
Ceiling: 6800 feet AGL
Clouds: few clouds at 5500 feet AGL
broken clouds at 6800 feet AGL
Weather: no significant weather observed at this time

METAR text: EKAH 232120Z AUTO 09018KT 9999NDV FEW054/// BKN068/// BKN090/// 14/02 Q1012
Conditions at: EKAH (TIRSTRUP (CIV/MI, DK) observed 2120 UTC 23 April 2019
Temperature: 14.0°C (57°F)
Dewpoint: 2.0°C (36°F) [RH = 44%]
Pressure (altimeter): 29.88 inches Hg (1012.0 mb)
Winds: from the E (90 degrees) at 21 MPH (18 knots; 9.3 m/s)
Visibility: missing
Ceiling: 6800 feet AGL
Clouds: few clouds at 5400 feet AGL
broken clouds at 6800 feet AGL
broken clouds at 9000 feet AGL
Weather: no significant weather observed at this time

METAR text: EKAH 232050Z AUTO 09019KT 9999NDV BKN052/// BKN088/// 14/02 Q1013
Conditions at: EKAH (TIRSTRUP (CIV/MI, DK) observed 2050 UTC 23 April 2019
Temperature: 14.0°C (57°F)
Dewpoint: 2.0°C (36°F) [RH = 44%]
Pressure (altimeter): 29.91 inches Hg (1013.0 mb)
Winds: from the E (90 degrees) at 22 MPH (19 knots; 9.8 m/s)
Visibility: missing
Ceiling: 5200 feet AGL
Clouds: broken clouds at 5200 feet AGL
broken clouds at 8800 feet AGL
Weather: no significant weather observed at this time

METAR text: EKAH 232020Z AUTO 09019KT 9999NDV SCT052/// BKN078/// 14/02 Q1013
Conditions at: EKAH (TIRSTRUP (CIV/MI, DK) observed 2020 UTC 23 April 2019
Temperature: 14.0°C (57°F)
Dewpoint: 2.0°C (36°F) [RH = 44%]
Pressure (altimeter): 29.91 inches Hg (1013.0 mb)
Winds: from the E (90 degrees) at 22 MPH (19 knots; 9.8 m/s)
Visibility: missing
Ceiling: 7800 feet AGL
Clouds: scattered clouds at 5200 feet AGL
broken clouds at 7800 feet AGL
Weather: no significant weather observed at this time

METAR text: EKAH 231950Z AUTO 09019KT 9999NDV BKN051/// BKN083/// 14/01 Q1013
Conditions at: EKAH (TIRSTRUP (CIV/MI, DK) observed 1950 UTC 23 April 2019
Temperature: 14.0°C (57°F)
Dewpoint: 1.0°C (34°F) [RH = 41%]
Pressure (altimeter): 29.91 inches Hg (1013.0 mb)
Winds: from the E (90 degrees) at 22 MPH (19 knots; 9.8 m/s)
Visibility: missing
Ceiling: 5100 feet AGL
Clouds: broken clouds at 5100 feet AGL
broken clouds at 8300 feet AGL
Weather: no significant weather observed at this time

METAR text: EKAH 231920Z AUTO 09020G31KT 9999NDV OVC059/// 15/01 Q1013
Conditions at: EKAH (TIRSTRUP (CIV/MI, DK) observed 1920 UTC 23 April 2019
Temperature: 15.0°C (59°F)
Dewpoint: 1.0°C (34°F) [RH = 39%]
Pressure (altimeter): 29.91 inches Hg (1013.0 mb)
Winds: from the E (90 degrees) at 23 MPH (20 knots; 10.3 m/s)
gusting to 36 MPH (31 knots; 15.9 m/s)
Visibility: missing
Ceiling: 5900 feet AGL
Clouds: overcast cloud deck at 5900 feet AGL
Weather: no significant weather observed at this time

METAR text: EKAH 231850Z AUTO 09019KT 9999NDV BKN057/// 15/01 Q1013
Conditions at: EKAH (TIRSTRUP (CIV/MI, DK) observed 1850 UTC 23 April 2019
Temperature: 15.0°C (59°F)
Dewpoint: 1.0°C (34°F) [RH = 39%]
Pressure (altimeter): 29.91 inches Hg (1013.0 mb)
Winds: from the E (90 degrees) at 22 MPH (19 knots; 9.8 m/s)
Visibility: missing
Ceiling: 5700 feet AGL
Clouds: broken clouds at 5700 feet AGL
Weather: no significant weather observed at this time

METAR text: EKAH 231820Z AUTO 09018KT 9999NDV BKN047/// 14/02 Q1014
Conditions at: EKAH (TIRSTRUP (CIV/MI, DK) observed 1820 UTC 23 April 2019
Temperature: 14.0°C (57°F)
Dewpoint: 2.0°C (36°F) [RH = 44%]
Pressure (altimeter): 29.94 inches Hg (1014.0 mb)
Winds: from the E (90 degrees) at 21 MPH (18 knots; 9.3 m/s)
Visibility: missing
Ceiling: 4700 feet AGL
Clouds: broken clouds at 4700 feet AGL
Weather: no significant weather observed at this time

METAR text: EKAH 231750Z AUTO 09019G29KT 9999NDV BKN047/// 15/02 Q1014
Conditions at: EKAH (TIRSTRUP (CIV/MI, DK) observed 1750 UTC 23 April 2019
Temperature: 15.0°C (59°F)
Dewpoint: 2.0°C (36°F) [RH = 41%]
Pressure (altimeter): 29.94 inches Hg (1014.0 mb)
Winds: from the E (90 degrees) at 22 MPH (19 knots; 9.8 m/s)
gusting to 33 MPH (29 knots; 14.9 m/s)
Visibility: missing
Ceiling: 4700 feet AGL
Clouds: broken clouds at 4700 feet AGL
Weather: no significant weather observed at this time

METAR text: EKAH 231720Z AUTO 09018KT 9999NDV FEW048/// 15/02 Q1014
Conditions at: EKAH (TIRSTRUP (CIV/MI, DK) observed 1720 UTC 23 April 2019
Temperature: 15.0°C (59°F)
Dewpoint: 2.0°C (36°F) [RH = 41%]
Pressure (altimeter): 29.94 inches Hg (1014.0 mb)
Winds: from the E (90 degrees) at 21 MPH (18 knots; 9.3 m/s)
Visibility: missing
Ceiling: at least 12,000 feet AGL
Clouds: few clouds at 4800 feet AGL
Weather: no significant weather observed at this time

METAR text: EKAH 231650Z AUTO 10017KT 9999NDV NCD 15/02 Q1014
Conditions at: EKAH (TIRSTRUP (CIV/MI, DK) observed 1650 UTC 23 April 2019
Temperature: 15.0°C (59°F)
Dewpoint: 2.0°C (36°F) [RH = 41%]
Pressure (altimeter): 29.94 inches Hg (1014.0 mb)
Winds: from the E (100 degrees) at 20 MPH (17 knots; 8.7 m/s)
Visibility: missing
Ceiling: at least 12,000 feet AGL
Clouds: sky clear below 12,000 feet AGL
Weather: no significant weather observed at this time

METAR text: EKAH 231620Z AUTO 09016G26KT 9999NDV NCD 16/02 Q1015
Conditions at: EKAH (TIRSTRUP (CIV/MI, DK) observed 1620 UTC 23 April 2019
Temperature: 16.0°C (61°F)
Dewpoint: 2.0°C (36°F) [RH = 39%]
Pressure (altimeter): 29.97 inches Hg (1015.0 mb)
Winds: from the E (90 degrees) at 18 MPH (16 knots; 8.2 m/s)
gusting to 30 MPH (26 knots; 13.4 m/s)
Visibility: missing
Ceiling: at least 12,000 feet AGL
Clouds: sky clear below 12,000 feet AGL
Weather: no significant weather observed at this time

METAR text: EKAH 231550Z AUTO 10018G29KT 9999NDV NCD 16/02 Q1015
Conditions at: EKAH (TIRSTRUP (CIV/MI, DK) observed 1550 UTC 23 April 2019
Temperature: 16.0°C (61°F)
Dewpoint: 2.0°C (36°F) [RH = 39%]
Pressure (altimeter): 29.97 inches Hg (1015.0 mb)
Winds: from the E (100 degrees) at 21 MPH (18 knots; 9.3 m/s)
gusting to 33 MPH (29 knots; 14.9 m/s)
Visibility: missing
Ceiling: at least 12,000 feet AGL
Clouds: sky clear below 12,000 feet AGL
Weather: no significant weather observed at this time

METAR text: EKAH 231520Z AUTO 10019G30KT 070V130 9999NDV NCD 17/01 Q1015
Conditions at: EKAH (TIRSTRUP (CIV/MI, DK) observed 1520 UTC 23 April 2019
Temperature: 17.0°C (63°F)
Dewpoint: 1.0°C (34°F) [RH = 34%]
Pressure (altimeter): 29.97 inches Hg (1015.0 mb)
Winds: from the E (100 degrees) at 22 MPH (19 knots; 9.8 m/s)
gusting to 34 MPH (30 knots; 15.4 m/s)
Visibility: missing
Ceiling: at least 12,000 feet AGL
Clouds: sky clear below 12,000 feet AGL
Weather: no significant weather observed at this time

METAR text: EKAH 231450Z AUTO 10019G33KT 070V130 9999NDV NCD 17/02 Q1015
Conditions at: EKAH (TIRSTRUP (CIV/MI, DK) observed 1450 UTC 23 April 2019
Temperature: 17.0°C (63°F)
Dewpoint: 2.0°C (36°F) [RH = 36%]
Pressure (altimeter): 29.97 inches Hg (1015.0 mb)
Winds: from the E (100 degrees) at 22 MPH (19 knots; 9.8 m/s)
gusting to 38 MPH (33 knots; 17.0 m/s)
Visibility: missing
Ceiling: at least 12,000 feet AGL
Clouds: sky clear below 12,000 feet AGL
Weather: no significant weather observed at this time

METAR text: EKAH 231420Z AUTO 10018KT 070V130 9999NDV NCD 17/02 Q1016
Conditions at: EKAH (TIRSTRUP (CIV/MI, DK) observed 1420 UTC 23 April 2019
Temperature: 17.0°C (63°F)
Dewpoint: 2.0°C (36°F) [RH = 36%]
Pressure (altimeter): 30.00 inches Hg (1016.0 mb)
Winds: from the E (100 degrees) at 21 MPH (18 knots; 9.3 m/s)
Visibility: missing
Ceiling: at least 12,000 feet AGL
Clouds: sky clear below 12,000 feet AGL
Weather: no significant weather observed at this time

METAR text: EKAH 231350Z AUTO 10020G31KT 9999NDV NCD 17/02 Q1016
Conditions at: EKAH (TIRSTRUP (CIV/MI, DK) observed 1350 UTC 23 April 2019
Temperature: 17.0°C (63°F)
Dewpoint: 2.0°C (36°F) [RH = 36%]
Pressure (altimeter): 30.00 inches Hg (1016.0 mb)
Winds: from the E (100 degrees) at 23 MPH (20 knots; 10.3 m/s)
gusting to 36 MPH (31 knots; 15.9 m/s)
Visibility: missing
Ceiling: at least 12,000 feet AGL
Clouds: sky clear below 12,000 feet AGL
Weather: no significant weather observed at this time

METAR text: EKAH 231320Z AUTO 11019KT 070V130 9999NDV NCD 17/01 Q1016
Conditions at: EKAH (TIRSTRUP (CIV/MI, DK) observed 1320 UTC 23 April 2019
Temperature: 17.0°C (63°F)
Dewpoint: 1.0°C (34°F) [RH = 34%]
Pressure (altimeter): 30.00 inches Hg (1016.0 mb)
Winds: from the ESE (110 degrees) at 22 MPH (19 knots; 9.8 m/s)
Visibility: missing
Ceiling: at least 12,000 feet AGL
Clouds: sky clear below 12,000 feet AGL
Weather: no significant weather observed at this time

METAR text: EKAH 231250Z AUTO 10018G32KT 060V140 9999NDV NCD 17/02 Q1016
Conditions at: EKAH (TIRSTRUP (CIV/MI, DK) observed 1250 UTC 23 April 2019
Temperature: 17.0°C (63°F)
Dewpoint: 2.0°C (36°F) [RH = 36%]
Pressure (altimeter): 30.00 inches Hg (1016.0 mb)
Winds: from the E (100 degrees) at 21 MPH (18 knots; 9.3 m/s)
gusting to 37 MPH (32 knots; 16.5 m/s)
Visibility: missing
Ceiling: at least 12,000 feet AGL
Clouds: sky clear below 12,000 feet AGL
Weather: no significant weather observed at this time

METAR text: EKAH 231220Z AUTO 10019G33KT 9999NDV NCD 17/02 Q1017
Conditions at: EKAH (TIRSTRUP (CIV/MI, DK) observed 1220 UTC 23 April 2019
Temperature: 17.0°C (63°F)
Dewpoint: 2.0°C (36°F) [RH = 36%]
Pressure (altimeter): 30.03 inches Hg (1017.0 mb)
Winds: from the E (100 degrees) at 22 MPH (19 knots; 9.8 m/s)
gusting to 38 MPH (33 knots; 17.0 m/s)
Visibility: missing
Ceiling: at least 12,000 feet AGL
Clouds: sky clear below 12,000 feet AGL
Weather: no significant weather observed at this time

METAR text: EKAH 231150Z AUTO 10018G31KT 080V150 9999NDV NCD 17/01 Q1017
Conditions at: EKAH (TIRSTRUP (CIV/MI, DK) observed 1150 UTC 23 April 2019
Temperature: 17.0°C (63°F)
Dewpoint: 1.0°C (34°F) [RH = 34%]
Pressure (altimeter): 30.03 inches Hg (1017.0 mb)
Winds: from the E (100 degrees) at 21 MPH (18 knots; 9.3 m/s)
gusting to 36 MPH (31 knots; 15.9 m/s)
Visibility: missing
Ceiling: at least 12,000 feet AGL
Clouds: sky clear below 12,000 feet AGL
Weather: no significant weather observed at this time

Forecast for: EKAH (TIRSTRUP (CIV/MI, DK)
Text: TAF EKAH 242314Z 2500/2524 10008KT CAVOK
Forecast period: 0000 UTC 25 April 2019 to 0000 UTC 26 April 2019
Forecast type: FROM: standard forecast or significant change
Winds: from the E (100 degrees) at 9 MPH (8 knots; 4.1 m/s)
Visibility: 6 or more miles 10+ km)
Ceiling: unknown
Clouds: missing
Weather: NSW  (no significant weather)
Text: PROB40 2509/2512 BKN012
Forecast period: 0900 to 1200 UTC 25 April 2019
Forecast type: PROBABLE: 40 percent likelihood of the following during this time
Visibility: missing
Ceiling: 1200 feet AGL
Clouds: broken clouds at 1200 feet AGL
Weather: no significant weather forecast for this period